Time;durP1;ratioP1;P1;durP2;ratioP2;P2;SDS_P1;SDS_P2;PMS_P1;PMS_P2;Temp;Humidity;BMP_temperature;BMP_pressure;BME280_temperature;BME280_humidity;BME280_pressure;Samples;Min_cycle;Max_cycle;Signal;HPM_P1;HPM_P2
2022/05/27 00:01:27;;;;;;;5.35;3.78;;;21.40;99.90;;;;;;5039654;28;20475;-72
2022/05/27 00:03:56;;;;;;;4.03;3.63;;;21.40;99.90;;;;;;5045575;28;20025;-72
2022/05/27 00:06:24;;;;;;;5.18;3.53;;;21.60;99.90;;;;;;5034798;28;20071;-71
2022/05/27 00:08:51;;;;;;;4.28;2.83;;;22.00;99.90;;;;;;5031728;28;20080;-75
2022/05/27 00:11:19;;;;;;;4.57;3.40;;;22.30;99.90;;;;;;5038716;28;20036;-73
2022/05/27 00:13:46;;;;;;;3.20;2.80;;;22.50;99.90;;;;;;5031856;28;20018;-72
2022/05/27 00:16:14;;;;;;;5.10;3.88;;;22.90;99.40;;;;;;5045379;28;20029;-74
2022/05/27 00:18:42;;;;;;;4.85;4.03;;;22.80;99.20;;;;;;5043993;28;20047;-72
2022/05/27 00:21:10;;;;;;;5.03;3.90;;;22.80;98.20;;;;;;5037576;28;20056;-73
2022/05/27 00:23:39;;;;;;;3.78;3.30;;;23.10;98.60;;;;;;5032582;28;20025;-74
2022/05/27 00:26:07;;;;;;;4.03;3.20;;;23.20;98.70;;;;;;5042206;28;20063;-74
2022/05/27 00:28:34;;;;;;;4.70;3.60;;;23.40;98.80;;;;;;5052408;28;20048;-73
2022/05/27 00:31:04;;;;;;;4.28;3.50;;;24.00;98.30;;;;;;5047544;28;20568;-72
2022/05/27 00:33:33;;;;;;;4.93;3.65;;;24.50;97.50;;;;;;5035634;28;20108;-72
2022/05/27 00:36:01;;;;;;;5.65;3.40;;;24.60;96.40;;;;;;5033405;28;20025;-74
2022/05/27 00:38:28;;;;;;;4.95;3.83;;;24.60;97.10;;;;;;5036850;28;20041;-73
2022/05/27 00:40:57;;;;;;;4.53;4.07;;;24.80;96.40;;;;;;5045797;28;20013;-73
2022/05/27 00:43:24;;;;;;;5.32;4.00;;;24.90;96.10;;;;;;5030376;28;20033;-72
2022/05/27 00:46:12;;;;;;;5.03;3.97;;;25.20;95.90;;;;;;5041758;28;20957;-72
2022/05/27 00:48:42;;;;;;;5.32;4.00;;;25.60;95.10;;;;;;4934198;28;2824481;-72
2022/05/27 00:51:28;;;;;;;3.97;3.42;;;25.30;94.70;;;;;;5038033;28;20071;-74
2022/05/27 00:54:07;;;;;;;6.43;4.53;;;25.30;95.70;;;;;;5032836;28;20083;-72
2022/05/27 00:56:39;;;;;;;5.28;4.15;;;25.50;95.50;;;;;;5043214;28;20029;-74
2022/05/27 00:59:28;;;;;;;4.65;4.22;;;26.00;95.20;;;;;;5039300;28;20049;-73
2022/05/27 01:01:56;;;;;;;6.68;4.43;;;26.20;95.00;;;;;;5043507;28;20068;-73
2022/05/27 01:04:24;;;;;;;6.25;3.72;;;26.50;94.80;;;;;;5048041;28;20033;-70
2022/05/27 01:06:52;;;;;;;6.40;3.70;;;27.00;93.50;;;;;;5050962;28;20024;-75
2022/05/27 01:09:20;;;;;;;4.78;3.97;;;27.20;93.20;;;;;;5042329;28;20419;-73
2022/05/27 01:12:06;;;;;;;4.97;3.45;;;27.30;93.90;;;;;;5043274;28;20059;-72
2022/05/27 01:14:38;;;;;;;5.05;3.63;;;27.40;93.40;;;;;;5036122;28;20104;-73
2022/05/27 01:17:11;;;;;;;4.45;3.30;;;27.40;93.50;;;;;;5033572;28;20040;-72
2022/05/27 01:20:21;;;;;;;3.53;3.13;;;27.90;92.20;;;;;;5046980;28;20091;-74
2022/05/27 01:23:12;;;;;;;4.65;3.42;;;27.90;92.10;;;;;;5045377;28;20053;-72
2022/05/27 01:25:39;;;;;;;5.53;3.80;;;27.60;92.20;;;;;;5038039;28;20048;-75
2022/05/27 01:28:21;;;;;;;6.85;3.28;;;28.10;92.90;;;;;;5029597;28;20155;-73
2022/05/27 01:31:09;;;;;;;3.55;2.90;;;28.00;92.00;;;;;;5028777;28;20017;-72
2022/05/27 01:33:48;;;;;;;4.38;2.53;;;28.10;92.20;;;;;;5049202;28;20054;-73
2022/05/27 01:36:28;;;;;;;5.22;2.95;;;28.10;92.40;;;;;;5039552;28;20021;-73
2022/05/27 01:39:04;;;;;;;3.35;2.50;;;28.10;92.40;;;;;;5035937;28;20482;-73
2022/05/27 01:41:34;;;;;;;3.53;2.78;;;28.70;91.50;;;;;;5031612;28;20529;-71
2022/05/27 01:44:11;;;;;;;3.45;2.40;;;28.50;91.30;;;;;;5031134;28;20060;-73
2022/05/27 01:46:44;;;;;;;6.63;3.65;;;28.50;91.20;;;;;;5027080;28;20079;-73
2022/05/27 01:49:12;;;;;;;3.00;2.70;;;28.80;91.20;;;;;;5033743;28;20049;-71
2022/05/27 01:52:07;;;;;;;4.68;3.15;;;28.90;91.90;;;;;;5034738;28;20034;-73
2022/05/27 01:54:34;;;;;;;6.10;3.33;;;29.20;91.10;;;;;;5019071;28;20400;-71
2022/05/27 01:57:07;;;;;;;4.28;2.97;;;28.90;91.40;;;;;;5030552;28;20373;-73
2022/05/27 02:00:16;;;;;;;4.25;3.22;;;29.10;91.00;;;;;;5033592;28;20029;-73
2022/05/27 02:03:09;;;;;;;4.60;3.50;;;28.80;90.30;;;;;;5030282;28;20540;-73
2022/05/27 02:05:58;;;;;;;5.22;3.30;;;28.70;91.40;;;;;;5043638;28;20060;-74
2022/05/27 02:08:37;;;;;;;5.40;3.33;;;29.10;91.60;;;;;;5032309;28;20033;-74
2022/05/27 02:11:23;;;;;;;4.55;3.20;;;29.10;90.70;;;;;;5034258;28;20088;-75
2022/05/27 02:13:54;;;;;;;4.28;2.47;;;28.80;91.40;;;;;;5030670;28;20442;-76
2022/05/27 02:16:33;;;;;;;4.85;2.97;;;28.90;91.80;;;;;;5040753;28;20480;-76
2022/05/27 02:19:08;;;;;;;3.58;2.70;;;29.00;90.80;;;;;;5045244;28;20503;-75
2022/05/27 02:21:47;;;;;;;4.18;3.25;;;29.50;90.60;;;;;;5037911;28;20114;-76
2022/05/27 02:24:19;;;;;;;6.32;4.75;;;29.60;91.20;;;;;;5044572;28;20033;-77
2022/05/27 02:26:56;;;;;;;6.45;4.40;;;29.30;90.80;;;;;;5044623;28;20112;-80
2022/05/27 02:29:28;;;;;;;6.40;3.85;;;29.20;91.10;;;;;;5038912;28;20077;-78
2022/05/27 02:32:11;;;;;;;4.97;2.97;;;28.90;91.10;;;;;;5050822;28;20058;-79
2022/05/27 02:35:08;;;;;;;4.85;3.70;;;28.30;91.20;;;;;;5043424;28;20103;-76
2022/05/27 02:37:42;;;;;;;4.85;2.92;;;27.70;92.40;;;;;;5031221;28;20036;-78
2022/05/27 02:40:17;;;;;;;3.33;2.65;;;27.20;92.30;;;;;;5045589;28;20040;-78
2022/05/27 02:42:59;;;;;;;4.50;2.55;;;27.10;92.70;;;;;;5049167;28;20104;-76
2022/05/27 02:45:40;;;;;;;3.33;2.65;;;27.10;92.20;;;;;;5040589;28;20045;-79
2022/05/27 02:48:37;;;;;;;3.92;2.78;;;27.40;92.50;;;;;;5032144;28;20148;-81
2022/05/27 02:51:17;;;;;;;3.17;2.05;;;27.20;92.20;;;;;;5036923;28;20033;-78
2022/05/27 02:53:58;;;;;;;4.05;1.88;;;27.30;92.10;;;;;;5046883;28;20017;-77
2022/05/27 02:56:49;;;;;;;2.30;1.80;;;27.10;92.50;;;;;;5036974;28;20030;-78
2022/05/27 02:59:19;;;;;;;4.10;1.75;;;27.00;91.90;;;;;;5035440;28;20536;-80
2022/05/27 03:01:47;;;;;;;2.42;2.00;;;26.80;92.50;;;;;;5046430;28;20040;-80
2022/05/27 03:04:16;;;;;;;3.58;1.33;;;26.70;92.40;;;;;;5047305;28;20033;-78
2022/05/27 03:06:50;;;;;;;2.15;1.65;;;26.60;92.50;;;;;;5042423;28;20037;-78
2022/05/27 03:09:26;;;;;;;3.25;1.25;;;26.30;92.30;;;;;;5045485;28;20471;-82
2022/05/27 03:12:19;;;;;;;2.70;1.75;;;26.30;93.00;;;;;;5042736;28;20137;-80
2022/05/27 03:15:20;;;;;;;3.17;1.90;;;26.20;93.00;;;;;;5046805;28;20357;-78
2022/05/27 03:17:58;;;;;;;4.07;1.73;;;26.00;92.90;;;;;;5048746;28;20037;-81
2022/05/27 03:20:52;;;;;;;7.85;1.90;;;25.80;93.60;;;;;;5033034;28;20032;-78
2022/05/27 03:23:35;;;;;;;2.05;1.50;;;25.60;93.60;;;;;;5031438;28;20106;-80
2022/05/27 03:26:23;;;;;;;6.15;1.40;;;25.30;93.90;;;;;;5040558;28;20496;-80
2022/05/27 03:29:03;;;;;;;3.15;1.45;;;24.90;93.30;;;;;;5047093;28;20475;-77
2022/05/27 03:32:02;;;;;;;2.10;1.50;;;24.30;94.20;;;;;;5035150;28;20040;-81
2022/05/27 03:34:40;;;;;;;1.67;1.30;;;23.80;95.20;;;;;;5028931;28;20112;-79
2022/05/27 03:37:31;;;;;;;4.05;1.20;;;23.30;95.60;;;;;;5031218;28;20033;-78
2022/05/27 03:40:23;;;;;;;2.58;0.80;;;23.00;95.80;;;;;;5035335;28;20542;-78
2022/05/27 03:42:52;;;;;;;2.67;1.00;;;22.70;96.00;;;;;;5050821;28;20029;-81
2022/05/27 03:45:22;;;;;;;2.15;1.02;;;22.40;96.60;;;;;;5039848;28;20032;-77
2022/05/27 03:47:51;;;;;;;3.03;1.25;;;22.20;96.40;;;;;;5046953;28;20127;-76
2022/05/27 03:50:27;;;;;;;1.77;1.05;;;22.00;96.90;;;;;;5044535;28;20075;-82
2022/05/27 03:52:55;;;;;;;3.38;1.35;;;21.90;96.40;;;;;;5053502;28;20407;-81
2022/05/27 03:55:25;;;;;;;4.40;1.42;;;21.80;97.00;;;;;;5048915;28;20498;-77
2022/05/27 03:57:53;;;;;;;2.20;1.05;;;21.70;97.90;;;;;;5037314;28;20055;-79
2022/05/27 04:00:21;;;;;;;1.58;0.98;;;21.60;97.60;;;;;;5033540;28;20021;-78
2022/05/27 04:02:48;;;;;;;3.45;0.90;;;21.50;98.10;;;;;;5034538;28;20072;-80
2022/05/27 04:05:18;;;;;;;2.58;0.98;;;21.40;97.80;;;;;;5046550;28;20056;-78
2022/05/27 04:07:46;;;;;;;2.53;0.90;;;21.40;97.60;;;;;;5038430;28;20071;-77
2022/05/27 04:10:15;;;;;;;2.67;1.17;;;21.40;97.70;;;;;;5036113;28;20108;-79
2022/05/27 04:12:43;;;;;;;6.05;1.48;;;21.40;98.20;;;;;;5041905;28;20088;-78
2022/05/27 04:15:10;;;;;;;1.80;0.70;;;21.30;98.20;;;;;;5042894;28;20057;-78
2022/05/27 04:17:38;;;;;;;2.97;1.08;;;21.20;98.00;;;;;;5033384;28;20052;-80
2022/05/27 04:20:08;;;;;;;1.55;0.80;;;21.20;99.20;;;;;;5046908;28;20091;-81
2022/05/27 04:22:37;;;;;;;4.07;1.02;;;21.10;98.60;;;;;;5038103;28;20502;-77
2022/05/27 04:25:05;;;;;;;0.73;0.63;;;21.10;98.30;;;;;;5045055;28;20025;-81
2022/05/27 04:27:33;;;;;;;2.10;0.70;;;21.10;97.80;;;;;;5047770;28;20082;-77
2022/05/27 04:30:01;;;;;;;2.20;0.50;;;21.10;98.40;;;;;;5048149;28;20086;-78
2022/05/27 04:32:28;;;;;;;2.30;0.98;;;21.10;98.50;;;;;;5034913;28;20488;-81
2022/05/27 04:34:56;;;;;;;2.78;1.40;;;21.00;98.80;;;;;;5037164;28;20032;-78
2022/05/27 04:37:25;;;;;;;1.27;0.82;;;21.00;98.90;;;;;;5046018;28;20036;-76
2022/05/27 04:39:53;;;;;;;3.33;1.85;;;20.90;99.10;;;;;;5044895;28;20506;-79
2022/05/27 04:42:20;;;;;;;1.48;0.90;;;20.90;99.20;;;;;;5040032;28;20033;-81
2022/05/27 04:44:48;;;;;;;1.95;0.85;;;20.90;99.20;;;;;;5041493;28;20112;-79
2022/05/27 04:47:15;;;;;;;4.40;1.70;;;20.90;99.60;;;;;;5049995;28;20506;-76
2022/05/27 04:49:51;;;;;;;1.60;0.80;;;20.90;99.90;;;;;;5041594;28;20041;-77
2022/05/27 04:52:24;;;;;;;1.30;1.20;;;20.90;99.60;;;;;;5047327;28;20029;-75
2022/05/27 04:54:52;;;;;;;0.90;0.70;;;20.80;99.70;;;;;;5047066;28;20029;-78
2022/05/27 04:57:23;;;;;;;2.83;1.55;;;20.80;99.50;;;;;;5047445;28;20534;-76
2022/05/27 04:59:51;;;;;;;1.52;0.88;;;20.80;99.60;;;;;;5041423;28;20383;-76
2022/05/27 05:02:23;;;;;;;1.98;0.60;;;20.90;99.60;;;;;;5046830;28;20074;-78
2022/05/27 05:04:52;;;;;;;2.75;1.00;;;20.90;99.40;;;;;;5036470;28;20057;-76
2022/05/27 05:07:24;;;;;;;2.88;0.70;;;20.80;99.90;;;;;;5048421;28;20033;-76
2022/05/27 05:09:52;;;;;;;2.42;1.42;;;20.80;99.90;;;;;;5046809;28;20025;-76
2022/05/27 05:12:23;;;;;;;1.52;0.90;;;20.80;99.90;;;;;;5043371;28;20083;-75
2022/05/27 05:14:53;;;;;;;2.65;0.93;;;20.80;99.90;;;;;;5048242;28;20036;-74
2022/05/27 05:17:21;;;;;;;2.15;1.02;;;20.80;99.90;;;;;;5049938;28;20075;-76
2022/05/27 05:19:53;;;;;;;0.90;0.60;;;20.80;99.90;;;;;;5036742;28;20125;-74
2022/05/27 05:22:22;;;;;;;1.90;1.27;;;20.70;99.90;;;;;;5032346;28;20041;-77
2022/05/27 05:24:53;;;;;;;2.72;1.23;;;20.80;99.90;;;;;;5031568;28;20033;-76
2022/05/27 05:27:25;;;;;;;3.45;1.55;;;20.70;99.90;;;;;;5033758;28;20036;-78
2022/05/27 05:29:53;;;;;;;2.20;1.50;;;20.70;99.90;;;;;;5045334;28;20033;-75
2022/05/27 05:32:22;;;;;;;1.60;0.98;;;20.70;99.90;;;;;;5045828;28;20025;-78
2022/05/27 05:34:49;;;;;;;3.38;1.33;;;20.70;99.90;;;;;;5044463;28;20047;-77
2022/05/27 05:37:17;;;;;;;4.57;1.33;;;20.70;99.90;;;;;;5036768;28;20400;-76
2022/05/27 05:39:44;;;;;;;3.33;1.20;;;20.70;99.90;;;;;;5043678;28;20040;-77
2022/05/27 05:42:12;;;;;;;2.25;1.20;;;20.70;99.90;;;;;;5041830;28;20380;-77
2022/05/27 05:44:39;;;;;;;2.33;1.30;;;20.70;99.90;;;;;;5036107;28;20033;-74
2022/05/27 05:47:07;;;;;;;2.10;1.27;;;20.70;99.90;;;;;;5045823;28;20546;-73
2022/05/27 05:49:34;;;;;;;2.58;1.35;;;20.70;99.90;;;;;;5036325;28;20048;-74
2022/05/27 05:52:02;;;;;;;2.42;0.90;;;20.70;99.90;;;;;;5050413;28;20025;-73
2022/05/27 05:54:31;;;;;;;2.25;1.23;;;20.60;99.90;;;;;;5036475;28;20060;-72
2022/05/27 05:57:03;;;;;;;1.52;0.90;;;20.50;99.90;;;;;;5037256;28;20480;-75
2022/05/27 05:59:32;;;;;;;1.77;1.13;;;20.50;99.90;;;;;;5033748;28;20041;-73
2022/05/27 06:02:01;;;;;;;2.45;1.50;;;20.50;99.90;;;;;;5046689;28;20071;-77
2022/05/27 06:04:29;;;;;;;3.97;1.10;;;20.50;99.90;;;;;;5038473;28;20115;-73
2022/05/27 06:06:56;;;;;;;1.27;0.93;;;20.50;99.90;;;;;;5039833;28;20029;-71
2022/05/27 06:09:25;;;;;;;2.55;0.93;;;20.50;99.90;;;;;;5037401;28;20487;-72
2022/05/27 06:12:02;;;;;;;1.33;0.57;;;20.50;99.90;;;;;;5037051;28;20083;-71
2022/05/27 06:14:29;;;;;;;4.47;1.02;;;20.40;99.90;;;;;;5033261;28;20045;-75
2022/05/27 06:16:57;;;;;;;2.50;0.70;;;20.20;99.90;;;;;;5036549;28;20026;-73
2022/05/27 06:19:24;;;;;;;1.20;0.88;;;20.10;99.90;;;;;;5047281;28;20491;-74
2022/05/27 06:21:51;;;;;;;3.75;0.98;;;19.90;99.90;;;;;;5047829;28;20435;-74
2022/05/27 06:24:19;;;;;;;1.42;0.68;;;19.90;99.90;;;;;;5035624;28;20029;-75
2022/05/27 06:26:46;;;;;;;2.75;0.60;;;19.70;99.90;;;;;;5041908;28;20030;-73
2022/05/27 06:34:44;;;;;;;2.78;0.80;;;19.50;99.90;;;;;;5034547;28;20055;-74
2022/05/27 06:37:18;;;;;;;2.85;0.90;;;19.40;99.90;;;;;;5033752;28;20477;-75
2022/05/27 06:39:46;;;;;;;2.15;0.80;;;19.30;99.90;;;;;;5038970;28;20098;-73
2022/05/27 06:42:15;;;;;;;11.65;1.25;;;19.30;99.90;;;;;;5038320;28;20464;-73
2022/05/27 06:44:42;;;;;;;4.10;1.38;;;19.20;99.90;;;;;;5034510;28;20029;-73
2022/05/27 06:47:11;;;;;;;1.63;0.82;;;19.10;99.90;;;;;;5035658;28;20028;-73
2022/05/27 06:49:39;;;;;;;3.22;1.15;;;19.00;99.90;;;;;;5045501;28;20041;-71
2022/05/27 06:52:08;;;;;;;1.65;0.90;;;19.00;99.90;;;;;;5035383;28;20021;-73
2022/05/27 06:54:36;;;;;;;2.20;0.80;;;18.90;99.90;;;;;;5047614;28;20063;-72
2022/05/27 06:57:06;;;;;;;3.55;1.52;;;18.80;99.90;;;;;;5049885;28;20387;-73
2022/05/27 06:59:33;;;;;;;1.52;1.00;;;18.80;99.90;;;;;;5047100;28;20064;-73
2022/05/27 07:02:01;;;;;;;2.25;1.17;;;18.60;99.90;;;;;;5046431;28;20426;-72
2022/05/27 07:04:29;;;;;;;3.10;1.15;;;18.60;99.90;;;;;;5033156;28;20037;-73
2022/05/27 07:06:57;;;;;;;10.55;1.88;;;18.40;99.90;;;;;;5035290;28;20063;-72
2022/05/27 07:09:25;;;;;;;2.65;1.60;;;18.40;99.90;;;;;;5035176;28;20414;-73
2022/05/27 07:11:55;;;;;;;4.93;1.73;;;18.30;99.90;;;;;;5048964;28;20029;-73
2022/05/27 07:14:22;;;;;;;7.35;3.97;;;18.20;99.90;;;;;;5045112;28;20039;-74
2022/05/27 07:16:50;;;;;;;6.28;4.75;;;18.10;99.90;;;;;;5036269;28;20078;-74
2022/05/27 07:19:19;;;;;;;4.90;3.88;;;18.10;99.90;;;;;;5036455;28;20037;-74
2022/05/27 07:21:48;;;;;;;4.32;3.28;;;18.00;99.90;;;;;;5050852;28;20039;-73
2022/05/27 07:24:17;;;;;;;7.53;3.55;;;18.00;99.90;;;;;;5037551;28;20116;-73
2022/05/27 07:26:46;;;;;;;3.35;2.65;;;17.90;99.90;;;;;;5035631;28;20041;-74
2022/05/27 07:29:14;;;;;;;5.72;3.50;;;17.80;99.90;;;;;;5043481;28;20029;-75
2022/05/27 07:31:44;;;;;;;5.18;3.20;;;17.70;99.90;;;;;;5048390;28;20029;-75
2022/05/27 07:34:13;;;;;;;5.13;2.92;;;17.60;99.90;;;;;;5040135;28;20741;-75
2022/05/27 07:36:40;;;;;;;3.28;2.47;;;17.50;99.90;;;;;;5042051;28;20056;-76
2022/05/27 07:39:09;;;;;;;4.00;2.97;;;17.40;99.90;;;;;;5036435;28;20391;-76
2022/05/27 07:41:37;;;;;;;5.13;3.25;;;17.40;99.90;;;;;;5052992;28;20036;-77
2022/05/27 07:44:06;;;;;;;5.10;3.17;;;17.40;99.90;;;;;;5051016;28;20025;-76
2022/05/27 07:46:36;;;;;;;5.32;2.88;;;17.30;99.90;;;;;;5042379;28;20033;-77
2022/05/27 07:49:04;;;;;;;5.55;2.97;;;17.10;99.90;;;;;;5033961;28;20087;-75
2022/05/27 07:51:32;;;;;;;9.07;3.45;;;17.00;99.90;;;;;;5035967;28;20587;-71
2022/05/27 07:53:59;;;;;;;6.57;3.40;;;16.90;99.90;;;;;;5045325;28;20021;-74
2022/05/27 07:56:27;;;;;;;5.40;4.15;;;16.80;99.90;;;;;;5036280;28;20032;-74
2022/05/27 07:58:54;;;;;;;10.50;5.05;;;16.80;99.90;;;;;;5047090;28;20051;-75
2022/05/27 08:01:21;;;;;;;7.60;4.53;;;16.70;99.90;;;;;;5041667;28;20028;-74
2022/05/27 08:03:49;;;;;;;6.95;4.20;;;16.60;99.90;;;;;;5049492;28;20033;-75
2022/05/27 08:06:16;;;;;;;6.90;5.63;;;16.60;99.90;;;;;;5047863;28;20033;-77
2022/05/27 08:08:43;;;;;;;9.60;4.85;;;16.50;99.90;;;;;;5032989;28;20810;-78
2022/05/27 08:11:11;;;;;;;7.43;4.85;;;16.50;99.90;;;;;;5035054;28;20038;-76
2022/05/27 08:13:39;;;;;;;8.90;5.32;;;16.40;99.90;;;;;;5051824;28;20466;-78
2022/05/27 08:16:07;;;;;;;5.20;4.40;;;16.40;99.90;;;;;;5043834;28;20065;-75
2022/05/27 08:18:34;;;;;;;11.90;6.13;;;16.30;99.90;;;;;;5047507;28;20040;-73
2022/05/27 08:21:01;;;;;;;12.23;6.20;;;16.30;99.90;;;;;;5045115;28;20025;-72
2022/05/27 08:23:29;;;;;;;7.72;5.35;;;16.30;99.90;;;;;;5032518;28;20115;-72
2022/05/27 08:25:56;;;;;;;6.82;4.90;;;16.30;99.90;;;;;;5031874;28;20026;-76
2022/05/27 08:28:27;;;;;;;6.47;4.32;;;16.20;99.90;;;;;;5033051;28;20026;-74
2022/05/27 08:30:58;;;;;;;7.45;4.03;;;16.10;99.90;;;;;;5047080;28;20029;-77
2022/05/27 08:38:01;;;;;;;6.97;4.47;;;16.10;99.90;;;;;;5050347;28;20037;-74
2022/05/27 08:39:09;;;;;;;8.20;4.38;;;15.90;99.90;;;;;;5040285;28;20060;-72
2022/05/27 08:41:40;;;;;;;9.02;4.95;;;15.90;99.90;;;;;;5046871;28;20025;-73
2022/05/27 08:44:23;;;;;;;7.68;4.88;;;15.80;99.90;;;;;;5031730;28;20463;-77
2022/05/27 08:47:21;;;;;;;6.65;4.28;;;15.80;99.90;;;;;;5036702;28;20402;-75
2022/05/27 08:49:52;;;;;;;14.10;4.95;;;15.70;99.90;;;;;;5048795;28;20049;-76
2022/05/27 08:52:33;;;;;;;6.05;3.28;;;15.70;99.90;;;;;;5044181;28;20155;-77
2022/05/27 08:55:06;;;;;;;4.90;3.70;;;15.60;99.90;;;;;;5045295;28;20029;-76
2022/05/27 09:00:26;;;;;;;;;;;15.50;99.90;;;;;;5040355;28;20059;-75
2022/05/27 09:03:07;;;;;;;4.47;3.13;;;15.50;99.90;;;;;;5044389;28;20011;-75
2022/05/27 09:05:47;;;;;;;6.72;3.58;;;15.40;99.90;;;;;;5034493;28;20033;-77
2022/05/27 09:08:21;;;;;;;3.30;2.97;;;15.50;99.90;;;;;;5030444;28;20353;-77
2022/05/27 09:10:50;;;;;;;6.30;2.92;;;15.50;99.90;;;;;;5032207;28;20079;-76
2022/05/27 09:13:56;;;;;;;5.07;3.13;;;15.40;99.90;;;;;;5047372;28;20021;-75
2022/05/27 09:16:23;;;;;;;6.47;3.47;;;15.30;99.90;;;;;;5039532;28;20458;-77
2022/05/27 09:19:05;;;;;;;8.43;6.20;;;15.30;99.90;;;;;;5042590;28;20511;-71
2022/05/27 09:21:55;;;;;;;15.20;9.95;;;15.20;99.90;;;;;;5031924;28;20025;-73
2022/05/27 09:24:38;;;;;;;20.48;14.65;;;15.20;99.90;;;;;;5046537;28;20372;-73
2022/05/27 09:27:39;;;;;;;15.63;11.57;;;15.10;99.90;;;;;;5048764;28;20021;-74
2022/05/27 09:30:12;;;;;;;7.95;6.30;;;15.10;99.90;;;;;;5049692;28;20065;-75
2022/05/27 09:32:59;;;;;;;10.45;5.57;;;15.00;99.90;;;;;;5049170;28;20031;-75
2022/05/27 09:35:32;;;;;;;7.25;4.32;;;15.10;99.90;;;;;;5043426;28;20029;-76
2022/05/27 09:38:03;;;;;;;7.78;3.72;;;15.00;99.90;;;;;;5039635;28;20036;-77
2022/05/27 09:40:47;;;;;;;5.03;3.30;;;15.10;99.90;;;;;;5045744;28;20061;-76
2022/05/27 09:43:41;;;;;;;6.00;3.20;;;15.00;99.90;;;;;;5050298;28;20491;-75
2022/05/27 09:46:30;;;;;;;8.10;3.30;;;15.00;99.90;;;;;;5034151;28;20044;-76
2022/05/27 09:48:58;;;;;;;8.30;5.13;;;14.90;99.90;;;;;;5030087;28;20041;-77
2022/05/27 09:51:29;;;;;;;6.97;3.72;;;14.90;99.90;;;;;;5049911;28;20041;-76
2022/05/27 09:54:25;;;;;;;7.03;3.97;;;14.80;99.90;;;;;;5048422;28;20025;-76
2022/05/27 09:57:26;;;;;;;7.95;3.92;;;14.80;99.90;;;;;;5036417;28;20048;-76
2022/05/27 10:00:00;;;;;;;5.28;3.20;;;14.70;99.90;;;;;;5051884;28;20044;-74
2022/05/27 10:02:35;;;;;;;5.47;3.25;;;14.70;99.90;;;;;;5049533;28;20461;-77
2022/05/27 10:05:16;;;;;;;5.30;3.63;;;14.70;99.90;;;;;;5047569;28;20029;-75
2022/05/27 10:07:50;;;;;;;5.32;3.30;;;14.70;99.90;;;;;;5032450;28;20487;-75
2022/05/27 10:10:21;;;;;;;5.40;3.38;;;14.70;99.90;;;;;;5030068;28;20033;-75
2022/05/27 10:12:49;;;;;;;7.68;4.28;;;14.70;99.90;;;;;;5033521;28;20543;-76
2022/05/27 10:15:38;;;;;;;6.90;3.97;;;14.60;99.90;;;;;;5031755;28;20084;-73
2022/05/27 10:18:19;;;;;;;4.80;2.80;;;14.50;99.90;;;;;;5031560;28;20116;-74
2022/05/27 10:21:01;;;;;;;9.32;3.97;;;14.50;99.90;;;;;;5034877;28;20044;-73
2022/05/27 10:23:35;;;;;;;4.97;3.17;;;14.40;99.90;;;;;;5032975;28;20025;-70
2022/05/27 10:26:21;;;;;;;5.32;3.20;;;14.40;99.90;;;;;;5035137;28;20045;-73
2022/05/27 10:29:00;;;;;;;5.80;3.78;;;14.30;99.90;;;;;;5030178;28;20376;-72
2022/05/27 10:31:28;;;;;;;4.38;3.05;;;14.30;99.90;;;;;;5044223;28;20025;-73
2022/05/27 10:33:55;;;;;;;4.70;2.45;;;14.20;99.90;;;;;;5033768;28;20021;-73
2022/05/27 10:36:26;;;;;;;6.60;3.17;;;14.20;99.90;;;;;;5048316;28;20037;-72
2022/05/27 10:39:05;;;;;;;8.27;3.38;;;14.20;99.90;;;;;;5048538;28;20519;-72
2022/05/27 10:41:53;;;;;;;6.88;3.45;;;14.10;99.90;;;;;;5045886;28;20025;-71
2022/05/27 10:44:33;;;;;;;9.52;5.35;;;14.10;99.90;;;;;;5033537;28;20124;-73
2022/05/27 10:47:01;;;;;;;8.75;5.10;;;14.00;99.90;;;;;;5045122;28;20506;-73
2022/05/27 10:49:40;;;;;;;9.30;5.18;;;14.00;99.90;;;;;;5041985;28;20045;-73
2022/05/27 10:52:39;;;;;;;8.85;5.38;;;14.00;99.90;;;;;;5053574;28;20029;-73
2022/05/27 10:55:32;;;;;;;13.88;7.07;;;14.00;99.90;;;;;;5044837;28;20036;-72
2022/05/27 11:04:27;;;;;;;9.38;5.95;;;14.00;99.90;;;;;;5039331;28;20392;-70
2022/05/27 11:07:09;;;;;;;8.75;5.22;;;14.00;99.90;;;;;;5046374;28;20037;-72
2022/05/27 11:10:03;;;;;;;9.10;5.75;;;14.00;99.90;;;;;;5045587;28;20036;-71
2022/05/27 11:15:52;;;;;;;8.60;6.63;;;14.10;99.90;;;;;;5046479;28;20395;-74
2022/05/27 11:18:40;;;;;;;11.40;7.60;;;14.10;99.90;;;;;;5045248;28;20056;-73
2022/05/27 11:21:17;;;;;;;12.32;7.63;;;14.20;99.90;;;;;;5033794;28;20035;-72
2022/05/27 11:24:08;;;;;;;8.30;6.03;;;14.20;99.90;;;;;;5034510;28;20030;-74
2022/05/27 11:26:47;;;;;;;10.70;6.20;;;14.30;99.90;;;;;;5048330;28;20036;-74
2022/05/27 11:29:42;;;;;;;8.40;5.53;;;14.40;99.90;;;;;;5051202;28;20029;-73
2022/05/27 11:32:40;;;;;;;6.85;4.60;;;14.50;99.90;;;;;;5034353;28;20030;-73
2022/05/27 11:35:33;;;;;;;8.05;4.68;;;14.50;99.90;;;;;;5041855;28;20422;-74
2022/05/27 11:38:27;;;;;;;6.75;3.72;;;14.60;99.90;;;;;;5039085;28;20080;-73
2022/05/27 11:41:33;;;;;;;8.52;4.47;;;14.70;99.90;;;;;;5048816;28;20100;-75
2022/05/27 11:44:24;;;;;;;4.75;4.07;;;14.70;99.90;;;;;;5041188;28;20068;-74
2022/05/27 11:47:20;;;;;;;6.70;5.50;;;14.70;99.90;;;;;;5049010;28;20788;-76
2022/05/27 11:50:29;;;;;;;6.68;4.57;;;14.70;99.90;;;;;;5051075;28;20045;-77
2022/05/27 11:53:03;;;;;;;8.82;4.50;;;14.70;99.90;;;;;;5050218;28;20210;-75
2022/05/27 11:55:48;;;;;;;4.95;3.88;;;14.60;99.90;;;;;;5050497;28;20101;-76
2022/05/27 11:58:37;;;;;;;5.68;3.92;;;14.50;99.90;;;;;;5051527;28;20041;-75
2022/05/27 12:01:41;;;;;;;4.53;3.55;;;14.50;99.90;;;;;;5034494;28;20025;-75
2022/05/27 12:04:31;;;;;;;4.53;3.70;;;14.40;99.90;;;;;;5041491;28;20025;-73
2022/05/27 12:07:34;;;;;;;3.85;3.30;;;14.30;99.90;;;;;;5039849;28;20029;-74
2022/05/27 12:10:08;;;;;;;5.10;3.22;;;14.30;99.90;;;;;;5037670;28;20036;-74
2022/05/27 12:12:56;;;;;;;5.90;3.72;;;14.20;99.90;;;;;;5041801;28;20021;-74
2022/05/27 12:16:04;;;;;;;5.55;3.60;;;14.10;99.90;;;;;;5038306;28;20059;-73
2022/05/27 12:18:37;;;;;;;;;;;14.00;99.90;;;;;;5029630;28;20073;-73
2022/05/27 12:21:11;;;;;;;4.05;2.80;;;13.90;99.90;;;;;;5038092;28;19916;-72
2022/05/27 12:23:48;;;;;;;4.30;3.35;;;13.90;99.90;;;;;;5051860;28;20021;-73
2022/05/27 12:26:16;;;;;;;4.93;2.78;;;13.80;99.90;;;;;;5045778;28;20028;-72
2022/05/27 12:28:46;;;;;;;5.30;3.53;;;13.80;99.90;;;;;;5036227;28;20033;-72
2022/05/27 12:31:15;;;;;;;10.57;7.28;;;13.70;99.90;;;;;;5038192;28;20036;-74
2022/05/27 12:33:43;;;;;;;17.05;12.88;;;13.70;99.90;;;;;;5042534;28;20041;-73
2022/05/27 12:36:28;;;;;;;14.02;10.32;;;13.60;99.90;;;;;;5047894;28;20049;-73
2022/05/27 12:38:58;;;;;;;17.27;12.52;;;13.50;99.90;;;;;;5051084;28;20079;-71
2022/05/27 12:41:31;;;;;;;14.25;8.95;;;13.50;99.90;;;;;;5049093;28;20430;-73
2022/05/27 12:44:01;;;;;;;8.65;5.72;;;13.40;99.90;;;;;;5038924;28;20034;-71
2022/05/27 12:46:31;;;;;;;5.75;4.93;;;13.40;99.90;;;;;;5040708;28;20017;-73
2022/05/27 12:49:22;;;;;;;7.95;4.72;;;13.30;99.90;;;;;;5049851;28;20561;-72
2022/05/27 12:51:50;;;;;;;6.00;4.30;;;13.20;99.90;;;;;;5036442;28;20036;-73
2022/05/27 12:54:48;;;;;;;5.35;4.50;;;13.20;99.90;;;;;;5047528;28;20029;-74
2022/05/27 13:00:59;;;;;;;5.18;4.00;;;13.20;99.90;;;;;;5032513;28;20132;-73
2022/05/27 13:03:31;;;;;;;;;;;13.10;99.90;;;;;;5048347;28;20163;-73
2022/05/27 13:06:18;;;;;;;5.82;3.30;;;13.10;99.90;;;;;;5039098;28;19996;-72
2022/05/27 13:08:52;;;;;;;6.13;3.55;;;13.00;99.90;;;;;;5044179;28;20068;-72
2022/05/27 13:11:26;;;;;;;6.40;3.63;;;12.90;99.90;;;;;;5049666;28;20056;-73
2022/05/27 13:14:06;;;;;;;8.95;3.92;;;12.90;99.90;;;;;;5035795;28;20032;-73
2022/05/27 13:16:57;;;;;;;5.15;3.20;;;12.80;99.90;;;;;;5033616;28;20087;-72
2022/05/27 13:19:33;;;;;;;6.38;3.83;;;12.80;99.90;;;;;;5029531;28;20120;-71
2022/05/27 13:22:05;;;;;;;4.68;3.60;;;12.80;99.90;;;;;;5036086;28;20471;-73
2022/05/27 13:24:36;;;;;;;6.78;4.20;;;12.70;99.90;;;;;;5033635;28;20032;-72
2022/05/27 13:27:16;;;;;;;8.35;4.70;;;12.70;99.90;;;;;;5033618;28;20117;-73
2022/05/27 13:30:01;;;;;;;5.60;3.28;;;12.70;99.90;;;;;;5033225;28;20037;-72
2022/05/27 13:32:52;;;;;;;5.13;4.15;;;12.70;99.90;;;;;;5029899;28;20029;-73
2022/05/27 13:35:20;;;;;;;7.30;4.60;;;12.60;99.90;;;;;;5032701;28;20037;-73
2022/05/27 13:37:55;;;;;;;9.07;4.93;;;12.60;99.90;;;;;;5031751;28;20492;-72
2022/05/27 13:40:35;;;;;;;7.07;4.82;;;12.60;99.90;;;;;;5042421;28;20144;-72
2022/05/27 13:43:39;;;;;;;6.95;4.68;;;12.60;99.90;;;;;;5051133;28;20037;-72
2022/05/27 13:46:25;;;;;;;12.07;4.95;;;12.60;99.90;;;;;;5046908;28;20049;-73
2022/05/27 13:48:58;;;;;;;6.53;5.07;;;12.60;99.90;;;;;;5034459;28;20558;-72
2022/05/27 13:51:27;;;;;;;7.95;5.45;;;12.70;99.90;;;;;;5030276;28;20079;-72
2022/05/27 13:53:55;;;;;;;7.38;4.57;;;12.60;99.90;;;;;;5031805;28;20438;-72